Aérodrome :







RETROUVEZ-NOUS SUR...

 
LOGIN :

S'inscrire | Disclaimer

   EN    FR    IT 

 









Légende :    VFR   VFR Marginal   IFR   IFR Intensif   IFR Très Intensif
Visi : 
Plafond : 
>= 8 km
>= 3000ft
5 à 8 km
1000 à 3000 ft
1500m à 5 km
500 à 1000 ft
800 à 1500m
200 à 500 ft
< 800m
< 200 ft
Symboles :   Orages  Brouillard  Fortes neiges  Fortes précipitations  Vent > 20 kt






- Altitude de l'aérodrome : 377 ft
- Code IATA : YPS


CYPD - Port Hawkesbury

DERNIER METAR :
  • 122300Z AUTO 19016G26KT 150V210 9SM OVC014 15/14 A2968 RMK SLP053 DENSITY ALT 700FT

METARs EXPIRÉS :
  • 122201Z AUTO 20017G30KT 9SM OVC012 15/14 A2969 RMK SLP058 DENSITY ALT 700FT
  • 122145Z AUTO 19015G23KT 6SM -RA BR OVC010 15/14 A2969 RMK SLP060 DENSITY ALT 600FT
  • 122121Z AUTO 19015G26KT 6SM RA BR BKN010 OVC014 15/14 A2971 RMK SLP064 DENSITY ALT 600FT
  • 122112Z AUTO 19012G23KT 9SM BKN010 OVC014 15/14 A2971 RMK SLP066 DENSITY ALT 600FT
  • 122106Z AUTO 19016G22KT 9SM -RA BKN010 OVC014 15/14 A2972 RMK SLP068 DENSITY ALT 600FT
  • 122056Z AUTO 19016G26KT 5SM -RA BR BKN012 OVC016 15/14 A2972 RMK SLP070 DENSITY ALT 600FT
  • 122047Z AUTO 19013G21KT 5SM RA BR OVC012 15/14 A2973 RMK SLP071 DENSITY ALT 600FT
  • 122037Z AUTO 19011G22KT 6SM -RA BR OVC012 15/14 A2973 RMK SLP071 DENSITY ALT 600FT
  • 122028Z AUTO 19014G24KT 5SM -RA BR OVC012 15/14 A2973 RMK SLP071 DENSITY ALT 600FT

TAF N/A



MET'MAP, la Météo Aéronautique d'un coup d'oeil ! - Copyright ORBIFLY Décembre 2007 - Disclaimer

ORBIFLY MET'MAP TEAM :

Programmation & Développement : Alexandra Zaïnal
Conception & Développement : Baudouin d'Aumeries
Co-Programmation & Développement : Marc-Olivier Méhu
Soutien technique & logistique : Manuel Goepfert

Contact : metmap@orbifly.com




SOURCES & CREDITS :

   NOAA